Time;durP1;ratioP1;P1;durP2;ratioP2;P2;SDS_P1;SDS_P2;PMS_P1;PMS_P2;Temp;Humidity;BMP_temperature;BMP_pressure;BME280_temperature;BME280_humidity;BME280_pressure;Samples;Min_cycle;Max_cycle;Signal;HPM_P1;HPM_P2
2022/09/09 00:00:53;;;;;;;0.73;0.73;;;;;;;12.63;100.00;65499.38;5116733;28;20189;-74
2022/09/09 00:03:26;;;;;;;0.70;0.70;;;;;;;12.60;100.00;65492.91;5117323;28;20632;-74
2022/09/09 00:06:07;;;;;;;1.00;1.00;;;;;;;12.70;100.00;65498.25;5116942;28;20227;-74
2022/09/09 00:08:54;;;;;;;0.83;0.83;;;;;;;;;;5116806;28;20212;-73
2022/09/09 00:11:28;;;;;;;0.93;0.93;;;;;;;12.58;100.00;65486.03;5099765;28;20209;-73
2022/09/09 00:14:00;;;;;;;0.80;0.80;;;;;;;12.59;100.00;65494.41;5117104;28;20255;-73
2022/09/09 00:16:30;;;;;;;1.00;1.00;;;;;;;;;;5116674;28;20177;-73
2022/09/09 00:19:32;;;;;;;1.47;1.37;;;;;;;12.61;100.00;65504.97;5116363;28;20208;-73
2022/09/09 00:22:04;;;;;;;0.93;0.77;;;;;;;;;;5116918;28;20183;-73
2022/09/09 00:24:42;;;;;;;1.00;1.00;;;;;;;12.60;100.00;65496.06;5116859;28;20173;-73
2022/09/09 00:27:22;;;;;;;2.63;1.20;;;;;;;12.59;100.00;65494.94;5116482;28;20215;-73
2022/09/09 00:29:55;;;;;;;1.10;1.10;;;;;;;12.60;100.00;65500.72;5116338;28;20189;-73
2022/09/09 00:32:23;;;;;;;1.00;1.00;;;;;;;12.61;100.00;65494.56;5116708;28;20257;-73
2022/09/09 00:34:59;;;;;;;1.60;1.30;;;;;;;;;;5116371;28;20188;-73
2022/09/09 00:37:28;;;;;;;0.90;0.90;;;;;;;12.62;100.00;65498.28;5115401;28;20220;-73
2022/09/09 00:40:00;;;;;;;1.27;0.80;;;;;;;12.70;100.00;65498.78;5116237;28;20190;-73
2022/09/09 00:42:40;;;;;;;1.13;1.00;;;;;;;12.63;100.00;65499.38;5097704;28;20243;-73
2022/09/09 00:45:20;;;;;;;1.20;1.20;;;;;;;;;;5097666;28;20258;-73
2022/09/09 00:47:50;;;;;;;1.00;1.00;;;;;;;;;;5098086;28;20236;-73
2022/09/09 00:50:45;;;;;;;0.73;0.73;;;;;;;12.60;100.00;65488.25;5115999;28;20242;-73
2022/09/09 00:53:18;;;;;;;0.97;0.97;;;;;;;;;;5116025;28;20182;-73
2022/09/09 00:55:59;;;;;;;0.83;0.83;;;;;;;12.65;100.00;65493.25;5116300;28;20513;-73
2022/09/09 00:58:27;;;;;;;0.83;0.83;;;;;;;;;;5115711;28;20607;-73
2022/09/09 01:01:06;;;;;;;2.93;0.80;;;;;;;12.54;100.00;65489.41;5115601;28;20197;-74
2022/09/09 01:03:37;;;;;;;10.40;1.10;;;;;;;12.52;100.00;65484.03;5097306;28;20178;-74
2022/09/09 01:06:26;;;;;;;0.70;0.70;;;;;;;;;;5097242;28;20292;-73
2022/09/09 01:08:53;;;;;;;0.90;0.90;;;;;;;;;;5097061;28;20312;-74
2022/09/09 01:11:26;;;;;;;2.00;1.10;;;;;;;12.52;100.00;65478.81;5096939;28;20246;-74
2022/09/09 01:14:01;;;;;;;2.07;1.17;;;;;;;;;;5097957;28;20191;-74
2022/09/09 01:16:32;;;;;;;1.50;1.20;;;;;;;12.58;100.00;65482.88;5097285;28;20246;-74
2022/09/09 01:19:00;;;;;;;1.20;1.20;;;;;;;12.60;100.00;65495.50;5096861;28;20205;-73
2022/09/09 01:22:13;;;;;;;0.97;0.90;;;;;;;12.60;100.00;65487.69;5097485;28;20676;-73
2022/09/09 01:24:48;;;;;;;1.40;0.83;;;;;;;;;;5079761;28;20193;-73
2022/09/09 01:27:36;;;;;;;1.80;1.10;;;;;;;12.64;100.00;65497.34;5097503;28;20285;-73
2022/09/09 01:30:11;;;;;;;0.60;0.60;;;;;;;12.62;100.00;65498.28;5096695;28;20228;-73
2022/09/09 01:32:42;;;;;;;1.20;1.20;;;;;;;;;;5097004;28;20195;-73
2022/09/09 01:35:30;;;;;;;1.00;1.00;;;;;;;12.60;100.00;65488.25;5097250;28;20193;-73
2022/09/09 01:37:57;;;;;;;0.90;0.90;;;;;;;;;;5096840;28;20686;-73
2022/09/09 01:40:25;;;;;;;1.00;1.00;;;;;;;;;;5096531;28;20189;-73
2022/09/09 01:42:53;;;;;;;1.97;1.80;;;;;;;12.67;100.00;65500.69;5096507;28;20189;-73
2022/09/09 01:45:21;;;;;;;1.57;1.57;;;;;;;12.67;100.00;65492.88;5096433;28;20678;-73
2022/09/09 01:47:48;;;;;;;1.40;1.40;;;;;;;12.67;100.00;65503.84;5114469;28;20215;-73
2022/09/09 01:50:20;;;;;;;1.70;1.67;;;;;;;12.68;100.00;65494.53;5097166;28;20228;-73
2022/09/09 01:52:52;;;;;;;2.47;1.70;;;;;;;12.71;100.00;65499.91;5096296;28;20276;-73
2022/09/09 01:55:29;;;;;;;1.17;1.17;;;;;;;12.69;100.00;65502.88;5097114;28;20515;-73
2022/09/09 01:57:59;;;;;;;1.57;1.57;;;;;;;;;;5097058;28;20212;-73
2022/09/09 02:00:26;;;;;;;1.87;1.87;;;;;;;12.71;100.00;65440.00;5096277;28;20193;-74
2022/09/09 02:02:56;;;;;;;2.80;2.80;;;;;;;;;;5096438;28;20655;-73
2022/09/09 02:05:33;;;;;;;2.40;2.40;;;;;;;;;;5096348;28;20694;-73
2022/09/09 02:08:07;;;;;;;1.70;1.70;;;;;;;12.73;100.00;65514.59;5096292;28;20217;-73
2022/09/09 02:11:09;;;;;;;1.60;1.60;;;;;;;12.64;100.00;65492.69;5096380;28;20224;-73
2022/09/09 02:13:45;;;;;;;6.63;1.93;;;;;;;12.67;100.00;65495.47;5095963;28;20200;-73
2022/09/09 02:16:21;;;;;;;5.70;1.53;;;;;;;12.65;100.00;65503.66;5095909;28;20674;-73
2022/09/09 02:18:54;;;;;;;1.10;1.10;;;;;;;12.66;100.00;65494.38;5096665;28;20300;-73
2022/09/09 02:21:30;;;;;;;3.43;1.60;;;;;;;;;;5096110;28;20209;-73
2022/09/09 02:24:00;;;;;;;2.47;1.10;;;;;;;12.67;100.00;65500.69;5095742;28;20189;-73
2022/09/09 02:26:28;;;;;;;1.60;1.60;;;;;;;;;;5096109;28;20285;-73
2022/09/09 02:29:05;;;;;;;1.90;1.50;;;;;;;12.66;100.00;65494.91;5095584;28;20295;-73
2022/09/09 02:31:31;;;;;;;1.60;1.50;;;;;;;;;;5095736;28;20307;-73
2022/09/09 02:34:03;;;;;;;1.10;1.10;;;;;;;;;;5095717;28;20173;-73
2022/09/09 02:36:33;;;;;;;1.60;1.60;;;;;;;;;;5095670;28;20208;-73
2022/09/09 02:39:00;;;;;;;1.20;1.20;;;;;;;12.78;100.00;65505.06;5095552;28;20212;-73
2022/09/09 02:41:33;;;;;;;1.60;1.60;;;;;;;12.83;100.00;65510.06;5095663;28;20242;-73
2022/09/09 02:44:00;;;;;;;1.40;1.30;;;;;;;12.82;100.00;65512.13;5113827;28;20610;-73
2022/09/09 02:46:56;;;;;;;1.33;1.30;;;;;;;12.83;100.00;65512.69;5095518;28;20211;-73
2022/09/09 02:49:59;;;;;;;1.20;1.20;;;;;;;12.87;100.00;65525.50;5095566;28;20270;-73
2022/09/09 02:52:37;;;;;;;1.40;1.40;;;;;;;12.91;100.00;65518.94;5072162;28;20224;-73
2022/09/09 02:55:23;;;;;;;1.10;1.10;;;;;;;12.90;100.00;65521.00;5096110;28;20514;-73
2022/09/09 02:57:53;;;;;;;1.40;1.40;;;;;;;;;;5096291;28;20213;-73
2022/09/09 03:00:27;;;;;;;1.30;1.30;;;;;;;12.97;100.00;65535.47;5098025;28;20549;-73
2022/09/09 03:02:59;;;;;;;1.50;1.37;;;;;;;13.02;100.00;65539.00;5099936;28;20197;-73
2022/09/09 03:05:26;;;;;;;1.10;1.10;;;;;;;12.99;100.00;65529.88;5099500;28;20193;-73
2022/09/09 03:07:52;;;;;;;1.37;1.37;;;;;;;;;;5099415;28;20209;-73
2022/09/09 03:10:19;;;;;;;1.97;1.77;;;;;;;13.00;100.00;65528.38;5099323;28;20220;-73
2022/09/09 03:12:46;;;;;;;1.40;1.40;;;;;;;;;;5117637;28;20185;-73
2022/09/09 03:15:12;;;;;;;1.53;1.40;;;;;;;13.02;100.00;65533.78;5117879;28;20189;-73
2022/09/09 03:17:39;;;;;;;3.50;1.73;;;;;;;;;;5099206;28;20220;-73
2022/09/09 03:20:05;;;;;;;3.17;1.30;;;;;;;;;;5099264;28;20655;-73
2022/09/09 03:22:32;;;;;;;1.30;1.20;;;;;;;13.06;100.00;65537.66;5099197;28;20215;-73
2022/09/09 03:25:00;;;;;;;1.20;1.20;;;;;;;;;;5099157;28;20283;-73
2022/09/09 03:27:27;;;;;;;1.50;1.40;;;;;;;13.04;100.00;65533.38;5099034;28;20213;-73
2022/09/09 03:29:54;;;;;;;2.97;1.93;;;;;;;13.04;100.00;65535.44;5098957;28;20209;-73
2022/09/09 03:32:24;;;;;;;4.20;1.40;;;;;;;13.00;100.00;65528.38;5099039;28;20228;-73
2022/09/09 03:34:52;;;;;;;2.67;1.73;;;;;;;;;;5098984;28;20201;-73
2022/09/09 03:37:19;;;;;;;1.57;1.57;;;;;;;;;;5099161;28;20679;-73
2022/09/09 03:39:48;;;;;;;1.60;1.50;;;;;;;;;;5082256;28;20193;-73
2022/09/09 03:42:18;;;;;;;1.80;1.77;;;;;;;;;;5117111;28;20239;-73
2022/09/09 03:44:51;;;;;;;1.20;1.20;;;;;;;12.97;100.00;65535.47;5098818;28;20249;-73
2022/09/09 03:47:21;;;;;;;5.40;2.43;;;;;;;12.89;100.00;65519.91;5098631;28;20262;-73
2022/09/09 03:49:50;;;;;;;1.83;1.70;;;;;;;12.92;100.00;65523.22;5099529;28;20212;-73
2022/09/09 03:52:16;;;;;;;1.83;1.73;;;;;;;12.93;100.00;65529.56;5098712;28;20284;-74
2022/09/09 03:54:49;;;;;;;2.93;2.70;;;;;;;12.95;100.00;65534.38;5098866;28;20189;-74
2022/09/09 03:57:16;;;;;;;3.70;2.80;;;;;;;12.88;100.00;65524.00;5098490;28;20205;-74
2022/09/09 03:59:43;;;;;;;6.17;3.30;;;;;;;;;;5098397;28;20189;-74
2022/09/09 04:02:10;;;;;;;3.50;3.20;;;;;;;12.94;100.00;65533.28;5117283;28;20177;-74
2022/09/09 04:04:36;;;;;;;9.90;3.17;;;;;;;;;;5098432;28;20199;-74
2022/09/09 04:07:05;;;;;;;3.50;3.07;;;;;;;;;;5098211;28;20193;-74
2022/09/09 04:09:32;;;;;;;10.63;2.57;;;;;;;;;;5098273;28;20189;-74
2022/09/09 04:11:59;;;;;;;2.50;2.40;;;;;;;;;;5097937;28;20224;-74
2022/09/09 04:14:28;;;;;;;1.90;1.80;;;;;;;12.80;100.00;65517.16;5116462;28;20196;-74
2022/09/09 04:16:57;;;;;;;7.23;2.10;;;;;;;12.81;100.00;65511.00;5098686;28;20189;-73
2022/09/09 04:19:24;;;;;;;2.10;2.00;;;;;;;;;;5098090;28;20616;-73
2022/09/09 04:21:51;;;;;;;1.90;1.90;;;;;;;12.85;100.00;65512.84;5116597;28;20181;-73
2022/09/09 04:24:20;;;;;;;1.70;1.70;;;;;;;;;;5082089;28;20204;-73
2022/09/09 04:26:47;;;;;;;2.80;1.60;;;;;;;12.80;100.00;65515.13;5098194;28;20207;-73
2022/09/09 04:29:14;;;;;;;1.90;1.80;;;;;;;;;;5097872;28;20207;-73
2022/09/09 04:31:41;;;;;;;2.33;2.13;;;;;;;12.83;100.00;65512.69;5116367;28;20611;-73
2022/09/09 04:34:09;;;;;;;2.13;2.03;;;;;;;12.79;100.00;65516.06;5097819;28;20663;-73
2022/09/09 04:36:35;;;;;;;2.50;2.30;;;;;;;;;;5116029;28;20185;-73
2022/09/09 04:39:04;;;;;;;5.23;2.07;;;;;;;;;;5097583;28;20220;-74
2022/09/09 04:41:31;;;;;;;4.47;2.27;;;;;;;;;;5097673;28;20185;-74
2022/09/09 04:43:59;;;;;;;2.73;2.63;;;;;;;12.80;100.00;65509.34;5097582;28;20193;-74
2022/09/09 04:46:26;;;;;;;2.53;2.33;;;;;;;;;;5097623;28;20532;-73
2022/09/09 04:48:53;;;;;;;2.17;2.07;;;;;;;12.79;100.00;65514.00;5097526;28;20231;-73
2022/09/09 04:51:21;;;;;;;2.93;2.73;;;;;;;;;;5097981;28;20216;-73
2022/09/09 04:53:50;;;;;;;6.03;2.73;;;;;;;;;;5097424;28;20557;-73
2022/09/09 04:56:18;;;;;;;1.73;1.73;;;;;;;12.94;100.00;65522.28;5097357;28;20189;-73
2022/09/09 04:58:49;;;;;;;2.27;2.10;;;;;;;12.95;100.00;65533.81;5097381;28;20582;-73
2022/09/09 05:01:18;;;;;;;2.07;2.00;;;;;;;12.97;100.00;65535.47;5097332;28;20181;-73
2022/09/09 05:03:47;;;;;;;1.97;1.97;;;;;;;12.92;100.00;65531.03;5097302;28;20185;-73
2022/09/09 05:06:18;;;;;;;2.40;2.20;;;;;;;;;;5097219;28;20185;-73
2022/09/09 05:08:48;;;;;;;3.33;1.73;;;;;;;13.02;100.00;65533.78;5097040;28;20221;-73
2022/09/09 05:11:23;;;;;;;1.77;1.67;;;;;;;13.06;100.00;65535.59;5096898;28;20248;-73
2022/09/09 05:13:53;;;;;;;1.77;1.77;;;;;;;13.06;100.00;65546.03;5097039;28;20181;-73
2022/09/09 05:16:20;;;;;;;1.67;1.53;;;;;;;13.11;100.00;65551.59;5115288;28;20185;-73
2022/09/09 05:18:47;;;;;;;3.63;2.03;;;;;;;13.10;100.00;65542.66;5096883;28;20217;-73
2022/09/09 05:21:15;;;;;;;5.20;2.00;;;;;;;13.13;100.00;65550.66;5096888;28;20623;-73
2022/09/09 05:23:42;;;;;;;2.47;2.27;;;;;;;13.14;100.00;65546.53;5114506;28;20185;-73
2022/09/09 05:26:13;;;;;;;4.23;2.10;;;;;;;13.19;100.00;65550.06;5115337;28;20607;-73
2022/09/09 05:28:45;;;;;;;1.87;1.87;;;;;;;;;;5096588;28;20209;-73
2022/09/09 05:31:12;;;;;;;4.30;3.80;;;;;;;;;;5097128;28;20206;-73
2022/09/09 05:33:42;;;;;;;8.93;3.73;;;;;;;13.20;100.00;65551.19;5097425;28;20266;-73
2022/09/09 05:36:14;;;;;;;3.37;3.27;;;;;;;13.24;100.00;65554.53;5114742;28;20272;-73
2022/09/09 05:38:41;;;;;;;2.77;2.67;;;;;;;;;;5096498;28;20259;-73
2022/09/09 05:41:10;;;;;;;2.33;2.10;;;;;;;13.34;100.00;65573.44;5096480;28;20280;-73
2022/09/09 05:43:38;;;;;;;2.10;2.00;;;;;;;;;;5096423;28;20195;-74
2022/09/09 05:46:05;;;;;;;1.77;1.77;;;;;;;;;;5096424;28;20185;-74
2022/09/09 05:48:32;;;;;;;2.03;1.90;;;;;;;;;;5096333;28;20248;-73
2022/09/09 05:51:02;;;;;;;2.87;2.70;;;;;;;;;;5097043;28;20208;-73
2022/09/09 05:53:36;;;;;;;1.67;1.67;;;;;;;13.39;100.00;65579.56;5096288;28;20189;-73
2022/09/09 05:56:03;;;;;;;4.13;2.43;;;;;;;;;;5096251;28;20283;-73
2022/09/09 05:58:33;;;;;;;1.73;1.73;;;;;;;13.43;100.00;65586.63;5096109;28;20217;-73
2022/09/09 06:01:04;;;;;;;2.20;2.20;;;;;;;13.41;100.00;65573.94;5096169;28;20189;-73
2022/09/09 06:03:31;;;;;;;2.83;2.30;;;;;;;13.41;100.00;65581.78;5096029;28;20250;-73
2022/09/09 06:06:05;;;;;;;2.10;2.00;;;;;;;13.42;100.00;65577.66;5096276;28;20193;-74
2022/09/09 06:08:33;;;;;;;5.73;2.50;;;;;;;13.47;100.00;65583.22;5096078;28;20211;-73
2022/09/09 06:11:05;;;;;;;2.20;1.97;;;;;;;13.48;100.00;65591.59;5114031;28;20209;-73
2022/09/09 06:13:32;;;;;;;2.47;2.27;;;;;;;;;;5095864;28;20246;-73
2022/09/09 06:15:59;;;;;;;2.73;2.47;;;;;;;13.57;100.00;65601.59;5114182;28;20262;-73
2022/09/09 06:18:26;;;;;;;4.70;2.23;;;;;;;13.62;100.00;65607.16;5095696;28;20258;-73
2022/09/09 06:20:56;;;;;;;1.97;1.70;;;;;;;;;;5114326;28;20173;-75
2022/09/09 06:23:24;;;;;;;2.03;1.93;;;;;;;13.73;100.00;65611.56;5114293;28;20651;-73
2022/09/09 06:25:51;;;;;;;5.93;1.77;;;;;;;13.71;100.00;65606.19;5114268;28;20734;-73
2022/09/09 06:28:18;;;;;;;4.60;2.67;;;;;;;13.75;100.00;65613.25;5114486;28;20224;-73
2022/09/09 06:30:45;;;;;;;2.77;2.37;;;;;;;13.78;100.00;65613.94;5113868;28;20227;-73
2022/09/09 06:33:11;;;;;;;3.33;3.10;;;;;;;13.80;100.00;65618.25;5095608;28;20731;-73
2022/09/09 06:35:38;;;;;;;2.00;1.90;;;;;;;;;;5095013;28;20189;-73
2022/09/09 06:38:05;;;;;;;6.60;2.40;;;;;;;14.01;100.00;65642.16;5095587;28;20219;-73
2022/09/09 06:40:32;;;;;;;2.17;2.03;;;;;;;14.11;100.00;65652.16;5113811;28;20260;-73
2022/09/09 06:43:02;;;;;;;6.40;1.97;;;;;;;14.26;100.00;65674.03;5095418;28;20211;-73
2022/09/09 06:45:36;;;;;;;6.07;2.63;;;;;;;14.22;100.00;65664.94;5095560;28;20185;-73
2022/09/09 06:48:03;;;;;;;6.23;1.90;;;;;;;14.23;100.00;65662.88;5095379;28;20217;-73
2022/09/09 06:50:29;;;;;;;4.07;1.87;;;;;;;;;;5095398;28;20250;-73
2022/09/09 06:52:57;;;;;;;3.00;2.80;;;;;;;14.27;100.00;65669.94;5114196;28;20553;-73
2022/09/09 06:55:23;;;;;;;3.00;2.20;;;;;;;14.35;100.00;65678.25;5113611;28;20216;-73
2022/09/09 06:57:50;;;;;;;5.03;2.30;;;;;;;;;;5095432;28;20628;-73
2022/09/09 07:00:21;;;;;;;3.27;2.10;;;;;;;14.44;100.00;65688.28;5095943;28;20185;-73
2022/09/09 07:02:47;;;;;;;2.23;2.13;;;;;;;;;;5095647;28;20193;-73
2022/09/09 07:05:15;;;;;;;2.70;2.50;;;;;;;14.46;100.00;65696.31;5114010;28;20181;-73
2022/09/09 07:07:42;;;;;;;1.90;1.67;;;;;;;;;;5095379;28;20235;-73
2022/09/09 07:10:10;;;;;;;2.33;2.10;;;;;;;14.49;100.00;65699.63;5095229;28;20185;-73
2022/09/09 07:12:37;;;;;;;2.57;2.30;;;;;;;14.44;100.00;65688.84;5113466;28;20193;-73
2022/09/09 07:15:05;;;;;;;2.00;1.87;;;;;;;14.48;100.00;65693.31;5095391;28;20246;-73
2022/09/09 07:17:31;;;;;;;2.90;2.20;;;;;;;14.46;100.00;65704.13;5095324;28;20209;-73
2022/09/09 07:19:59;;;;;;;3.47;2.40;;;;;;;14.61;100.00;65704.03;5095302;28;20194;-73
2022/09/09 07:22:27;;;;;;;1.77;1.77;;;;;;;14.59;100.00;65705.53;5114025;28;20256;-73
2022/09/09 07:24:54;;;;;;;3.13;2.20;;;;;;;14.61;100.00;65706.66;5095095;28;20193;-73
2022/09/09 07:27:21;;;;;;;3.97;2.00;;;;;;;;;;5095093;28;20266;-73
2022/09/09 07:29:48;;;;;;;2.00;1.90;;;;;;;14.64;100.00;65710.53;5095089;28;20195;-73
2022/09/09 07:32:15;;;;;;;1.90;1.80;;;;;;;14.73;100.00;65720.00;5094994;28;20296;-73
2022/09/09 07:34:41;;;;;;;5.87;2.17;;;;;;;14.74;100.00;65721.13;5113813;28;20185;-73
2022/09/09 07:37:11;;;;;;;7.73;2.33;;;;;;;14.82;100.00;65737.84;5094931;28;20649;-73
2022/09/09 07:39:40;;;;;;;1.80;1.70;;;;;;;14.90;100.00;65736.28;5095935;28;20655;-73
2022/09/09 07:42:09;;;;;;;6.10;2.00;;;;;;;;;;5094944;28;20276;-73
2022/09/09 07:44:36;;;;;;;2.77;2.27;;;;;;;15.07;100.00;65765.09;5094994;28;20288;-73
2022/09/09 07:47:07;;;;;;;2.47;2.20;;;;;;;15.22;100.00;65770.81;5098291;28;20215;-73
2022/09/09 07:49:38;;;;;;;1.97;1.87;;;;;;;;;;5117556;28;20170;-73
2022/09/09 07:52:06;;;;;;;2.77;1.70;;;;;;;15.39;100.00;65792.31;5098789;28;20632;-73
2022/09/09 07:54:41;;;;;;;1.57;1.47;;;;;;;15.45;100.00;65799.00;5098972;28;20658;-73
2022/09/09 07:57:08;;;;;;;3.00;1.50;;;;;;;;;;5098768;28;20209;-73
2022/09/09 07:59:36;;;;;;;1.90;1.90;;;;;;;15.56;100.00;65750.50;5098523;28;20181;-73
2022/09/09 08:02:03;;;;;;;1.67;1.60;;;;;;;15.67;100.00;65823.50;5098484;28;20197;-73
2022/09/09 08:04:32;;;;;;;2.50;2.30;;;;;;;15.80;100.00;65836.88;5098429;28;20201;-73
2022/09/09 08:07:00;;;;;;;2.50;1.57;;;;;;;15.86;100.00;65843.53;5098331;28;20194;-73
2022/09/09 08:09:29;;;;;;;3.47;1.40;;;;;;;15.83;100.00;65838.16;5098321;28;20284;-73
2022/09/09 08:12:12;;;;;;;6.97;1.67;;;;;;;;;;5098385;28;20303;-73
2022/09/09 08:14:39;;;;;;;2.60;1.67;;;;;;;;;;5099104;28;20185;-73
2022/09/09 08:17:06;;;;;;;1.30;1.30;;;;;;;;;;5116418;28;20735;-73
2022/09/09 08:19:35;;;;;;;1.33;1.33;;;;;;;15.81;100.00;65835.94;5098116;28;20655;-73
2022/09/09 08:22:04;;;;;;;2.20;1.43;;;;;;;;;;5098657;28;20204;-73
2022/09/09 08:24:32;;;;;;;1.50;1.40;;;;;;;;;;5098012;28;20309;-73
2022/09/09 08:26:59;;;;;;;3.20;1.90;;;;;;;15.91;98.26;65849.69;5097930;28;20712;-73
2022/09/09 08:29:28;;;;;;;2.00;1.30;;;;;;;16.16;97.41;65874.34;5098763;28;20196;-74
2022/09/09 08:31:57;;;;;;;2.53;1.13;;;;;;;;;;5097883;28;20205;-73
2022/09/09 08:34:26;;;;;;;1.73;1.73;;;;;;;16.13;96.21;65873.06;5097898;28;20193;-73
2022/09/09 08:36:54;;;;;;;3.23;1.40;;;;;;;16.05;97.14;65864.72;5097963;28;20197;-73
2022/09/09 08:39:26;;;;;;;1.10;1.10;;;;;;;16.04;96.42;65860.44;5097773;28;20189;-73
2022/09/09 08:42:02;;;;;;;1.90;1.87;;;;;;;16.27;97.03;65885.47;5097647;28;20185;-73
2022/09/09 08:45:04;;;;;;;2.63;1.40;;;;;;;16.34;96.57;65893.28;5098329;28;20185;-73
2022/09/09 08:47:30;;;;;;;5.27;2.13;;;;;;;16.38;96.67;65908.22;5098099;28;20241;-72
2022/09/09 08:50:16;;;;;;;1.40;1.30;;;;;;;16.36;97.29;65898.13;5098452;28;20199;-73
2022/09/09 08:52:57;;;;;;;1.30;1.30;;;;;;;;;;5097724;28;20212;-72
2022/09/09 08:55:35;;;;;;;1.40;1.40;;;;;;;16.33;95.10;65894.78;5097496;28;20734;-73
2022/09/09 08:58:25;;;;;;;1.37;1.37;;;;;;;;;;5096340;28;20216;-73
2022/09/09 09:01:02;;;;;;;3.03;1.77;;;;;;;;;;5088328;28;20185;-73
2022/09/09 09:03:41;;;;;;;3.17;1.60;;;;;;;16.17;92.15;65878.09;5098129;28;20173;-73
2022/09/09 09:06:10;;;;;;;2.67;1.63;;;;;;;;;;5097832;28;20177;-73
2022/09/09 09:08:51;;;;;;;1.73;1.30;;;;;;;16.50;90.18;65913.72;5097049;28;20217;-73
2022/09/09 09:11:17;;;;;;;2.23;1.20;;;;;;;16.52;88.75;65916.50;5097200;28;20224;-73
2022/09/09 09:13:44;;;;;;;2.17;1.20;;;;;;;;;;5097133;28;20224;-73
2022/09/09 09:16:43;;;;;;;1.20;1.20;;;;;;;16.70;87.88;65935.47;5096999;28;20196;-73
2022/09/09 09:19:14;;;;;;;2.13;1.60;;;;;;;;;;5115439;28;20204;-73
2022/09/09 09:21:43;;;;;;;2.00;1.20;;;;;;;;;;5096865;28;20181;-74
2022/09/09 09:24:19;;;;;;;1.20;1.10;;;;;;;17.01;86.92;65974.72;5096943;28;20272;-73
2022/09/09 09:26:49;;;;;;;1.50;1.50;;;;;;;17.20;84.60;65990.63;5097005;28;20193;-73
2022/09/09 09:29:18;;;;;;;1.43;1.40;;;;;;;;;;5115616;28;20205;-74
2022/09/09 09:31:55;;;;;;;5.23;1.40;;;;;;;17.14;83.46;65980.78;5097527;28;20300;-73
2022/09/09 09:34:24;;;;;;;1.17;1.17;;;;;;;17.05;83.72;65971.31;5097456;28;20193;-73
2022/09/09 09:36:58;;;;;;;1.40;1.33;;;;;;;;;;5097358;28;20204;-73
2022/09/09 09:39:36;;;;;;;1.23;1.23;;;;;;;;;;5096587;28;20718;-74
2022/09/09 09:42:23;;;;;;;1.37;1.37;;;;;;;;;;5096553;28;20215;-72
2022/09/09 09:44:52;;;;;;;1.30;1.23;;;;;;;17.13;84.27;65898.34;5096775;28;20185;-73
2022/09/09 09:47:23;;;;;;;1.70;1.60;;;;;;;17.04;83.03;65983.84;5096393;28;20217;-73
2022/09/09 09:50:17;;;;;;;1.80;1.80;;;;;;;17.04;84.61;65972.81;5115222;28;20169;-73
2022/09/09 09:52:53;;;;;;;2.30;1.67;;;;;;;;;;5096274;28;20328;-73
2022/09/09 09:55:21;;;;;;;1.57;1.57;;;;;;;;;;5096224;28;20181;-73
2022/09/09 09:57:48;;;;;;;5.63;1.50;;;;;;;17.15;82.88;65982.47;5096174;28;20702;-73
2022/09/09 10:00:21;;;;;;;1.33;1.33;;;;;;;17.14;83.31;65989.19;5114388;28;20189;-73
2022/09/09 10:02:59;;;;;;;1.60;1.60;;;;;;;;;;5096228;28;20188;-73
2022/09/09 10:05:29;;;;;;;1.97;1.87;;;;;;;;;;5096157;28;20189;-73
2022/09/09 10:08:10;;;;;;;4.43;1.57;;;;;;;;;;5096309;28;20216;-73
2022/09/09 10:10:55;;;;;;;1.40;1.30;;;;;;;;;;5114370;28;20268;-73
2022/09/09 10:13:36;;;;;;;1.70;1.67;;;;;;;;;;5114174;28;20264;-72
2022/09/09 10:16:14;;;;;;;1.47;1.40;;;;;;;;;;5114147;28;20178;-73
2022/09/09 10:18:41;;;;;;;1.47;1.47;;;;;;;;;;5114593;28;20216;-73
2022/09/09 10:21:48;;;;;;;1.57;1.50;;;;;;;16.87;84.49;65894.13;5114628;28;20181;-73
2022/09/09 10:24:41;;;;;;;1.30;1.20;;;;;;;16.86;84.60;65953.31;5100377;28;20207;-72
2022/09/09 10:27:16;;;;;;;5.30;1.60;;;;;;;;;;5114506;28;20213;-73
2022/09/09 10:29:43;;;;;;;2.13;1.40;;;;;;;;;;5114371;28;20212;-73
2022/09/09 10:32:13;;;;;;;3.90;1.50;;;;;;;16.72;83.82;65938.28;5113865;28;20269;-73
2022/09/09 10:35:03;;;;;;;1.27;1.17;;;;;;;16.95;84.80;65971.22;5114125;28;20185;-73
2022/09/09 10:37:59;;;;;;;4.37;1.10;;;;;;;17.29;85.62;66008.56;5114282;28;20239;-73
2022/09/09 10:40:34;;;;;;;2.17;1.43;;;;;;;17.62;83.10;66041.59;5082938;28;20204;-73
2022/09/09 10:43:19;;;;;;;1.27;1.17;;;;;;;17.92;83.09;66073.97;5114280;28;20184;-73
2022/09/09 10:46:28;;;;;;;1.10;1.10;;;;;;;17.91;81.33;66064.97;5114069;28;20260;-73
2022/09/09 10:49:16;;;;;;;1.80;1.33;;;;;;;17.72;79.21;66047.53;5113575;28;20213;-73
2022/09/09 10:51:49;;;;;;;1.53;1.23;;;;;;;;;;5113611;28;20197;-72
2022/09/09 10:54:21;;;;;;;1.17;1.17;;;;;;;17.51;79.09;66021.47;5114011;28;20538;-73
2022/09/09 10:56:53;;;;;;;1.07;1.07;;;;;;;;;;5113625;28;20176;-73
2022/09/09 10:59:26;;;;;;;1.73;0.97;;;;;;;17.41;78.18;66013.50;5114132;28;20178;-73
2022/09/09 11:01:59;;;;;;;1.00;1.00;;;;;;;17.29;77.54;66008.00;5114224;28;20174;-73
2022/09/09 11:04:30;;;;;;;1.03;1.03;;;;;;;;;;5114169;28;20523;-73
2022/09/09 11:06:58;;;;;;;1.20;1.10;;;;;;;17.19;78.08;65986.34;5113527;28;20180;-72
2022/09/09 11:09:30;;;;;;;1.10;1.10;;;;;;;17.11;77.72;65985.84;5113775;28;20577;-73
2022/09/09 11:12:01;;;;;;;1.40;1.40;;;;;;;17.15;79.18;65989.78;5113354;28;20231;-73
2022/09/09 11:14:49;;;;;;;1.47;1.40;;;;;;;;;;5114069;28;20187;-73
2022/09/09 11:17:18;;;;;;;1.47;1.47;;;;;;;;;;5113926;28;20209;-73
2022/09/09 11:19:44;;;;;;;1.23;1.23;;;;;;;;;;5113761;28;20562;-73
2022/09/09 11:22:31;;;;;;;1.63;1.10;;;;;;;17.28;79.56;65999.00;5116954;28;20188;-73
2022/09/09 11:25:00;;;;;;;0.97;0.97;;;;;;;;;;5118039;28;20228;-72
2022/09/09 11:27:37;;;;;;;1.20;1.20;;;;;;;17.11;79.05;65980.63;5117379;28;20213;-73
2022/09/09 11:30:26;;;;;;;1.83;1.73;;;;;;;;;;5117958;28;20173;-73
2022/09/09 11:33:28;;;;;;;2.43;1.00;;;;;;;17.00;79.90;65968.34;5117185;28;20212;-73
2022/09/09 11:36:02;;;;;;;3.50;1.37;;;;;;;;;;5117531;28;20177;-73
2022/09/09 11:38:53;;;;;;;1.43;1.43;;;;;;;;;;5117375;28;20266;-73
2022/09/09 11:41:20;;;;;;;1.50;1.40;;;;;;;;;;5117032;28;20193;-73
2022/09/09 11:43:52;;;;;;;1.63;1.60;;;;;;;17.14;81.50;65989.19;5117063;28;20239;-73
2022/09/09 11:46:35;;;;;;;1.20;1.20;;;;;;;17.12;79.58;65994.28;5117328;28;20526;-72
2022/09/09 11:49:03;;;;;;;1.10;1.00;;;;;;;;;;5116978;28;20574;-72
2022/09/09 11:51:30;;;;;;;3.23;1.63;;;;;;;;;;5117437;28;20184;-73
2022/09/09 11:54:21;;;;;;;1.40;1.40;;;;;;;17.34;79.94;66011.50;5117185;28;20199;-73
2022/09/09 11:56:48;;;;;;;6.97;1.30;;;;;;;;;;5116583;28;20185;-72
2022/09/09 11:59:26;;;;;;;1.57;1.57;;;;;;;17.37;80.89;66008.50;5116875;28;20193;-73
2022/09/09 12:02:08;;;;;;;1.10;1.10;;;;;;;;;;5116997;28;20179;-73
2022/09/09 12:04:39;;;;;;;1.00;1.00;;;;;;;17.21;82.78;65991.75;5117279;28;20260;-73
2022/09/09 12:07:45;;;;;;;1.30;1.20;;;;;;;17.11;83.97;65980.63;5117225;28;20247;-73
2022/09/09 12:10:26;;;;;;;2.53;1.20;;;;;;;;;;5099384;28;20279;-74
2022/09/09 12:12:52;;;;;;;9.43;1.20;;;;;;;16.98;87.02;65966.13;5116817;28;20201;-74
2022/09/09 12:15:27;;;;;;;4.40;1.43;;;;;;;16.80;93.84;65885.78;5116556;28;20647;-75
2022/09/09 12:17:55;;;;;;;2.33;1.23;;;;;;;;;;5116710;28;20209;-75
2022/09/09 12:20:34;;;;;;;3.07;1.40;;;;;;;;;;5117059;28;20166;-76
2022/09/09 12:23:16;;;;;;;1.10;1.10;;;;;;;;;;5117005;28;20170;-76
2022/09/09 12:25:42;;;;;;;1.23;1.23;;;;;;;;;;5116303;28;20191;-75
2022/09/09 12:28:18;;;;;;;2.47;1.30;;;;;;;15.75;100.00;65831.31;5116182;28;20300;-74
2022/09/09 12:30:44;;;;;;;1.90;1.20;;;;;;;15.76;100.00;65842.88;5116795;28;20187;-74
2022/09/09 12:33:13;;;;;;;1.63;1.63;;;;;;;15.89;100.00;65852.69;5116045;28;20728;-74
2022/09/09 12:35:43;;;;;;;1.60;1.50;;;;;;;15.82;100.00;65844.34;5115916;28;20296;-74
2022/09/09 12:38:13;;;;;;;1.67;1.57;;;;;;;;;;5115826;28;20201;-73
2022/09/09 12:40:40;;;;;;;3.13;1.10;;;;;;;;;;5116560;28;20174;-74
2022/09/09 12:43:21;;;;;;;1.20;1.20;;;;;;;;;;5116482;28;20178;-74
2022/09/09 12:45:56;;;;;;;1.50;1.07;;;;;;;15.72;96.35;65825.91;5115990;28;20625;-73
2022/09/09 12:48:30;;;;;;;1.20;1.20;;;;;;;15.81;96.37;65843.22;5115796;28;20200;-74
2022/09/09 12:50:57;;;;;;;1.47;1.47;;;;;;;;;;5116117;28;20203;-74
2022/09/09 12:53:29;;;;;;;5.50;1.40;;;;;;;15.84;98.08;65841.31;5097624;28;20219;-74
2022/09/09 12:56:03;;;;;;;1.83;1.10;;;;;;;15.88;96.47;65851.56;5115662;28;20647;-73
2022/09/09 12:58:33;;;;;;;1.30;1.30;;;;;;;;;;5115620;28;20212;-73
2022/09/09 13:01:02;;;;;;;3.27;1.43;;;;;;;16.08;94.24;65867.50;5115869;28;20192;-73